Time;durP1;ratioP1;P1;durP2;ratioP2;P2;SDS_P1;SDS_P2;PMS_P1;PMS_P2;Temp;Humidity;BMP_temperature;BMP_pressure;BME280_temperature;BME280_humidity;BME280_pressure;Samples;Min_cycle;Max_cycle;Signal;HPM_P1;HPM_P2
2022/04/13 07:44:00;;;;;;;3.43;1.33;;;14.80;98.00;;;;;;6214937;22;1304277;-68
2022/04/13 07:46:29;;;;;;;1.20;1.17;;;14.80;98.00;;;;;;6313628;22;20243;-68
2022/04/13 07:48:56;;;;;;;1.40;1.20;;;15.00;98.00;;;;;;6313677;22;20972;-69
2022/04/13 07:51:23;;;;;;;2.97;1.50;;;15.10;98.00;;;;;;6313215;22;20421;-68
2022/04/13 07:53:50;;;;;;;1.77;1.60;;;15.30;98.00;;;;;;6313831;22;20981;-68
2022/04/13 07:56:16;;;;;;;2.63;1.70;;;15.30;98.00;;;;;;6313710;22;20463;-68
2022/04/13 07:58:43;;;;;;;1.83;1.40;;;15.30;98.00;;;;;;6313693;22;20935;-68
2022/04/13 08:01:12;;;;;;;2.63;1.60;;;15.30;98.00;;;;;;6314207;22;20426;-68
2022/04/13 08:03:39;;;;;;;2.03;1.70;;;15.50;98.00;;;;;;6312729;22;20420;-69
2022/04/13 08:06:06;;;;;;;1.90;1.77;;;15.80;98.00;;;;;;6312907;22;20421;-68
2022/04/13 08:08:34;;;;;;;1.50;1.27;;;15.80;98.00;;;;;;6314081;22;20402;-68
2022/04/13 08:11:00;;;;;;;2.00;1.50;;;16.00;98.00;;;;;;6313005;22;20403;-68
2022/04/13 08:13:28;;;;;;;2.90;2.17;;;16.10;96.10;;;;;;6313213;22;20430;-68
2022/04/13 08:15:56;;;;;;;2.13;1.57;;;16.30;95.20;;;;;;6312991;22;20414;-69
2022/04/13 08:18:24;;;;;;;1.70;1.50;;;16.30;95.00;;;;;;6286204;22;20399;-69
2022/04/13 08:20:51;;;;;;;1.70;1.60;;;16.50;95.70;;;;;;6313598;22;20701;-68
2022/04/13 08:23:19;;;;;;;2.10;1.33;;;16.60;95.00;;;;;;6312992;22;20399;-68
2022/04/13 08:25:46;;;;;;;2.70;1.67;;;16.70;94.30;;;;;;6290125;22;20439;-68
2022/04/13 08:28:14;;;;;;;2.17;1.67;;;16.80;93.90;;;;;;6306745;22;20400;-69
2022/04/13 08:30:41;;;;;;;2.47;1.30;;;17.00;94.10;;;;;;6306644;22;20832;-69
2022/04/13 08:33:08;;;;;;;2.70;1.67;;;17.00;94.30;;;;;;6306587;22;20481;-69
2022/04/13 08:35:36;;;;;;;1.87;1.50;;;17.20;93.90;;;;;;6306323;22;20400;-69
2022/04/13 08:38:03;;;;;;;2.80;1.40;;;17.40;93.70;;;;;;6279493;22;20407;-68
2022/04/13 08:40:36;;;;;;;1.33;1.20;;;17.60;94.40;;;;;;6306153;22;20438;-68
2022/04/13 08:43:10;;;;;;;2.17;1.63;;;17.80;93.10;;;;;;6306128;22;20428;-68
2022/04/13 08:45:46;;;;;;;1.90;1.57;;;18.00;91.80;;;;;;6306063;22;20901;-68
2022/04/13 08:48:18;;;;;;;2.60;1.70;;;18.10;91.60;;;;;;6306396;22;20399;-68
2022/04/13 08:50:46;;;;;;;2.30;1.70;;;18.30;92.90;;;;;;6305226;22;20403;-69
2022/04/13 08:53:21;;;;;;;2.07;1.57;;;18.40;90.90;;;;;;6306036;22;20418;-69
2022/04/13 08:55:54;;;;;;;2.43;1.70;;;18.60;91.00;;;;;;6306402;22;20636;-69
2022/04/13 08:58:30;;;;;;;2.30;1.73;;;18.70;90.00;;;;;;6306296;22;20392;-68
2022/04/13 09:01:00;;;;;;;1.60;1.43;;;18.80;88.50;;;;;;6305982;22;20466;-68
2022/04/13 09:03:42;;;;;;;1.53;1.40;;;18.90;88.20;;;;;;6306305;22;20406;-68
2022/04/13 09:06:11;;;;;;;3.10;2.17;;;19.00;87.90;;;;;;6305521;22;20400;-68
2022/04/13 09:08:46;;;;;;;2.50;1.70;;;19.00;89.40;;;;;;6306272;22;20485;-68
2022/04/13 09:11:14;;;;;;;1.87;1.50;;;19.10;88.10;;;;;;6280293;22;20441;-69
2022/04/13 09:13:44;;;;;;;3.00;1.63;;;19.20;88.80;;;;;;6306094;22;20428;-68
2022/04/13 09:16:12;;;;;;;1.60;1.30;;;19.40;88.60;;;;;;6305728;22;20502;-70
2022/04/13 09:18:39;;;;;;;3.30;1.70;;;19.60;88.10;;;;;;6307082;22;20395;-69
2022/04/13 09:21:06;;;;;;;1.67;1.40;;;19.70;87.00;;;;;;6306417;22;20453;-68
2022/04/13 09:23:34;;;;;;;5.73;2.17;;;19.80;84.00;;;;;;6307266;22;20453;-68
2022/04/13 09:26:03;;;;;;;2.17;1.60;;;19.90;84.80;;;;;;6307010;22;20466;-68
2022/04/13 09:28:30;;;;;;;1.90;1.70;;;20.10;85.20;;;;;;6279667;22;20937;-68
2022/04/13 09:30:57;;;;;;;2.43;1.90;;;20.30;83.50;;;;;;6307156;22;20396;-68
2022/04/13 09:33:25;;;;;;;1.50;1.40;;;20.30;83.40;;;;;;6279561;22;20502;-68
2022/04/13 09:35:55;;;;;;;1.50;1.30;;;20.50;83.30;;;;;;6307139;22;20426;-68
2022/04/13 09:38:23;;;;;;;2.80;1.70;;;20.60;83.10;;;;;;6306742;22;20396;-68
2022/04/13 09:40:52;;;;;;;2.47;1.87;;;20.70;83.00;;;;;;6306989;22;20866;-68
2022/04/13 09:43:21;;;;;;;1.50;1.40;;;20.70;80.50;;;;;;6307029;22;20442;-68
2022/04/13 09:45:50;;;;;;;1.70;1.50;;;20.90;83.10;;;;;;6306819;22;20479;-68
2022/04/13 09:48:19;;;;;;;2.50;2.17;;;21.00;82.40;;;;;;6307305;22;20423;-68
2022/04/13 09:50:47;;;;;;;1.60;1.60;;;21.00;81.10;;;;;;6306756;22;20873;-68
2022/04/13 09:53:16;;;;;;;2.50;1.80;;;21.20;80.80;;;;;;6306760;22;20772;-68
2022/04/13 09:55:44;;;;;;;1.93;1.77;;;21.30;80.70;;;;;;6306541;22;20423;-68
2022/04/13 09:58:14;;;;;;;1.90;1.43;;;21.40;81.30;;;;;;6306673;22;20452;-69
2022/04/13 10:00:43;;;;;;;2.17;1.70;;;21.60;82.60;;;;;;6306835;22;20450;-68
2022/04/13 10:03:12;;;;;;;2.33;1.90;;;21.80;81.80;;;;;;6306593;22;20419;-68
2022/04/13 10:05:42;;;;;;;2.03;1.70;;;22.00;80.10;;;;;;6306450;22;20953;-69
2022/04/13 10:08:13;;;;;;;2.20;1.73;;;22.10;77.90;;;;;;6306695;22;20411;-68
2022/04/13 10:10:42;;;;;;;1.80;1.53;;;22.10;80.20;;;;;;6306758;22;20450;-68
2022/04/13 10:13:13;;;;;;;1.53;1.40;;;22.30;79.60;;;;;;6306549;22;20430;-68
2022/04/13 10:15:57;;;;;;;2.53;1.53;;;22.40;77.30;;;;;;6305040;22;20436;-68
2022/04/13 10:18:24;;;;;;;2.00;1.57;;;22.50;78.00;;;;;;6306424;22;20392;-68
2022/04/13 10:20:51;;;;;;;2.83;1.60;;;22.60;79.70;;;;;;6306479;22;20844;-69
2022/04/13 10:23:18;;;;;;;2.87;1.67;;;22.60;76.80;;;;;;6306323;22;20396;-68
2022/04/13 10:25:45;;;;;;;2.30;1.60;;;22.70;78.70;;;;;;6306487;22;20466;-68
2022/04/13 10:28:13;;;;;;;1.60;1.50;;;22.80;79.30;;;;;;6306402;22;20482;-68
2022/04/13 10:30:42;;;;;;;2.40;1.87;;;22.90;78.30;;;;;;6306403;22;20407;-68
2022/04/13 10:33:11;;;;;;;2.10;1.50;;;22.90;77.50;;;;;;6306389;22;20481;-69
2022/04/13 10:35:41;;;;;;;1.80;1.60;;;23.10;79.80;;;;;;6306298;22;20423;-69
2022/04/13 10:38:08;;;;;;;1.97;1.77;;;23.20;77.40;;;;;;6306207;22;20566;-68
2022/04/13 10:40:40;;;;;;;2.30;1.80;;;23.40;77.90;;;;;;6305889;22;20434;-68
2022/04/13 10:43:09;;;;;;;3.07;2.00;;;23.60;77.10;;;;;;6305760;22;20474;-68
2022/04/13 10:45:42;;;;;;;1.70;1.53;;;23.70;78.20;;;;;;6306567;22;20411;-68
2022/04/13 10:48:10;;;;;;;2.63;1.87;;;23.90;78.90;;;;;;6306221;22;20454;-68
2022/04/13 10:50:49;;;;;;;3.00;1.90;;;24.10;76.40;;;;;;6306302;22;20412;-68
2022/04/13 10:53:28;;;;;;;2.80;1.73;;;24.20;76.60;;;;;;6305788;22;20893;-68
2022/04/13 10:56:00;;;;;;;3.20;1.77;;;24.40;76.30;;;;;;6305739;22;20456;-68
2022/04/13 10:58:46;;;;;;;3.00;1.87;;;24.60;77.10;;;;;;6306282;22;20454;-68
2022/04/13 11:01:15;;;;;;;2.60;2.00;;;24.70;74.80;;;;;;6305589;22;20420;-68
2022/04/13 11:03:44;;;;;;;1.70;1.60;;;24.90;75.90;;;;;;6306170;22;20435;-68
2022/04/13 11:06:12;;;;;;;2.60;2.00;;;25.00;77.00;;;;;;6279216;22;20866;-68
2022/04/13 11:08:46;;;;;;;2.00;1.90;;;25.20;75.30;;;;;;6305798;22;20503;-68
2022/04/13 11:11:18;;;;;;;2.03;1.67;;;25.30;73.60;;;;;;6306288;22;20393;-68
2022/04/13 11:13:48;;;;;;;2.43;1.90;;;25.20;74.60;;;;;;6305811;22;20418;-68
2022/04/13 11:16:18;;;;;;;3.13;2.40;;;25.30;76.40;;;;;;6316179;22;20475;-68
2022/04/13 11:19:19;;;;;;;3.30;2.47;;;25.50;76.00;;;;;;6306393;22;20756;-67
2022/04/13 11:22:14;;;;;;;2.23;1.73;;;25.70;73.20;;;;;;6305788;22;20482;-68
2022/04/13 11:24:54;;;;;;;2.67;1.80;;;25.90;72.60;;;;;;6305967;22;20850;-68
2022/04/13 11:27:22;;;;;;;2.77;1.77;;;26.10;71.00;;;;;;6306167;22;20423;-68
2022/04/13 11:29:59;;;;;;;3.53;2.00;;;26.30;72.80;;;;;;6306394;22;20450;-68
2022/04/13 11:32:31;;;;;;;2.80;1.90;;;26.50;73.80;;;;;;6306305;22;20438;-66
2022/04/13 11:35:02;;;;;;;2.80;1.93;;;26.80;72.90;;;;;;6306637;22;20423;-66
2022/04/13 11:37:43;;;;;;;1.87;1.70;;;27.00;71.70;;;;;;6306230;22;20533;-66
2022/04/13 11:40:13;;;;;;;2.17;1.97;;;27.20;71.90;;;;;;6305775;22;20749;-65
2022/04/13 11:42:56;;;;;;;1.80;1.80;;;27.30;70.60;;;;;;6305063;22;20449;-66
2022/04/13 11:45:25;;;;;;;2.87;2.10;;;27.40;69.00;;;;;;6305039;22;20409;-66
2022/04/13 11:47:58;;;;;;;3.17;1.80;;;27.40;68.60;;;;;;6253631;22;20393;-66
2022/04/13 11:50:27;;;;;;;2.80;2.03;;;27.50;69.00;;;;;;6305810;22;20715;-67
2022/04/13 11:52:55;;;;;;;4.20;2.10;;;27.60;69.10;;;;;;6305774;22;20417;-66
2022/04/13 11:55:24;;;;;;;2.00;1.70;;;27.60;70.90;;;;;;6316021;22;20424;-66
2022/04/13 11:58:25;;;;;;;2.27;1.90;;;27.60;71.30;;;;;;6305641;22;20885;-66
2022/04/13 12:00:57;;;;;;;2.03;1.90;;;27.60;69.60;;;;;;6306230;22;20407;-66
2022/04/13 12:03:28;;;;;;;2.77;1.90;;;27.60;69.00;;;;;;6307942;22;20400;-65
2022/04/13 12:05:57;;;;;;;2.17;1.83;;;27.60;70.00;;;;;;6307585;22;20442;-66
2022/04/13 12:08:26;;;;;;;1.80;1.70;;;27.70;68.80;;;;;;6307803;22;20396;-66
2022/04/13 12:10:57;;;;;;;3.33;2.73;;;27.60;70.50;;;;;;6307839;22;20494;-65
2022/04/13 12:13:25;;;;;;;3.00;1.93;;;27.50;73.20;;;;;;6307192;22;20399;-66
2022/04/13 12:15:53;;;;;;;2.73;2.10;;;27.50;69.80;;;;;;6307843;22;20489;-66
2022/04/13 12:18:21;;;;;;;2.40;1.97;;;27.60;72.50;;;;;;6307630;22;20502;-65
2022/04/13 12:20:50;;;;;;;3.13;1.93;;;27.70;69.70;;;;;;6307787;22;20415;-65
2022/04/13 12:23:18;;;;;;;2.33;1.90;;;27.90;71.10;;;;;;6307567;22;20447;-66
2022/04/13 12:25:46;;;;;;;2.00;1.83;;;28.00;69.50;;;;;;6307535;22;20411;-65
2022/04/13 12:28:14;;;;;;;2.57;1.87;;;28.20;69.30;;;;;;6307836;22;20412;-66
2022/04/13 12:30:41;;;;;;;2.40;2.03;;;28.30;69.90;;;;;;6307774;22;20443;-66
2022/04/13 12:33:23;;;;;;;2.77;1.80;;;28.40;69.80;;;;;;6307743;22;20416;-66
2022/04/13 12:35:53;;;;;;;4.10;2.43;;;28.50;68.90;;;;;;6307423;22;20423;-65
2022/04/13 12:38:25;;;;;;;2.50;1.77;;;28.60;69.60;;;;;;6307836;22;20400;-66
2022/04/13 12:41:09;;;;;;;3.83;2.30;;;28.70;68.60;;;;;;6307198;22;20400;-66
2022/04/13 12:43:37;;;;;;;2.10;1.80;;;28.80;68.60;;;;;;6307098;22;20894;-66
2022/04/13 12:46:18;;;;;;;2.00;1.80;;;28.80;68.50;;;;;;6307138;22;20418;-66
2022/04/13 12:48:48;;;;;;;6.70;2.70;;;28.90;66.50;;;;;;6307130;22;20403;-65
2022/04/13 12:51:17;;;;;;;2.60;2.00;;;28.90;69.20;;;;;;6305365;22;20736;-66
2022/04/13 12:53:50;;;;;;;5.50;2.70;;;29.10;69.90;;;;;;6279155;22;20540;-65
2022/04/13 12:56:19;;;;;;;6.07;2.23;;;29.20;66.90;;;;;;6306092;22;20424;-66
2022/04/13 12:58:47;;;;;;;3.07;2.07;;;28.90;68.10;;;;;;6305763;22;20397;-66
2022/04/13 13:01:31;;;;;;;5.30;2.00;;;29.10;68.10;;;;;;6306074;22;20963;-65
2022/04/13 13:04:00;;;;;;;2.83;2.07;;;29.40;67.10;;;;;;6306033;22;20400;-66
2022/04/13 13:06:30;;;;;;;3.30;2.00;;;29.60;67.80;;;;;;6305447;22;20393;-64
2022/04/13 13:09:00;;;;;;;2.50;1.90;;;29.80;65.40;;;;;;6306560;22;20400;-66
2022/04/13 13:11:29;;;;;;;2.43;1.77;;;30.00;65.40;;;;;;6305940;22;20480;-66
2022/04/13 13:14:10;;;;;;;2.70;2.40;;;30.10;65.60;;;;;;6306413;22;20492;-66
2022/04/13 13:16:38;;;;;;;1.97;1.73;;;30.10;67.30;;;;;;6278081;22;20492;-66
2022/04/13 13:19:16;;;;;;;2.07;1.77;;;30.20;65.90;;;;;;6306259;22;20951;-69
2022/04/13 13:22:10;;;;;;;2.77;1.90;;;30.30;64.10;;;;;;6305948;22;20392;-69
2022/04/13 13:24:46;;;;;;;2.10;1.90;;;30.30;63.80;;;;;;6305758;22;20407;-67
2022/04/13 13:27:13;;;;;;;8.13;2.10;;;30.30;64.30;;;;;;6305986;22;20399;-67
2022/04/13 13:29:44;;;;;;;4.70;2.30;;;30.50;63.80;;;;;;6306044;22;20480;-67
2022/04/13 13:32:12;;;;;;;2.57;2.20;;;30.60;63.90;;;;;;6305507;22;20404;-66
2022/04/13 13:34:39;;;;;;;3.10;2.13;;;30.70;61.90;;;;;;6306892;22;20392;-67
2022/04/13 13:37:07;;;;;;;2.20;1.80;;;30.70;61.90;;;;;;6306375;22;20986;-66
2022/04/13 13:39:36;;;;;;;2.50;1.93;;;30.90;65.20;;;;;;6306123;22;20396;-66
2022/04/13 13:42:08;;;;;;;1.80;1.70;;;30.90;62.60;;;;;;6279321;22;20399;-66
2022/04/13 13:44:36;;;;;;;1.87;1.77;;;30.90;63.30;;;;;;6306905;22;20426;-66
2022/04/13 13:47:03;;;;;;;3.10;2.00;;;30.70;62.60;;;;;;6279287;22;20497;-66
2022/04/13 13:49:30;;;;;;;1.93;1.80;;;30.80;63.10;;;;;;6306790;22;20392;-66
2022/04/13 13:51:57;;;;;;;2.43;1.80;;;30.80;62.50;;;;;;6306105;22;20396;-66
2022/04/13 13:54:25;;;;;;;2.80;1.80;;;31.00;63.00;;;;;;6306992;22;20806;-67
2022/04/13 13:56:54;;;;;;;1.90;1.83;;;31.00;62.90;;;;;;6306736;22;20435;-66
2022/04/13 13:59:20;;;;;;;3.37;2.30;;;31.00;63.50;;;;;;6306674;22;20403;-66
2022/04/13 14:01:48;;;;;;;2.43;1.90;;;31.20;62.50;;;;;;6306279;22;20439;-66
2022/04/13 14:04:15;;;;;;;4.10;2.00;;;31.30;61.40;;;;;;6306645;22;20421;-66
2022/04/13 14:06:42;;;;;;;4.80;2.30;;;31.30;60.10;;;;;;6306512;22;20428;-66
2022/04/13 14:09:11;;;;;;;1.80;1.70;;;31.40;61.40;;;;;;6278709;22;20416;-67
2022/04/13 14:11:38;;;;;;;2.23;1.73;;;31.50;61.30;;;;;;6307142;22;20408;-67
2022/04/13 14:14:06;;;;;;;2.20;1.80;;;31.60;61.20;;;;;;6306983;22;20475;-66
2022/04/13 14:16:36;;;;;;;3.30;2.00;;;31.80;61.60;;;;;;6306259;22;20955;-67
2022/04/13 14:19:03;;;;;;;2.10;1.67;;;31.90;60.40;;;;;;6306073;22;20415;-66
2022/04/13 14:21:31;;;;;;;2.43;2.00;;;32.30;60.60;;;;;;6306620;22;20764;-66
2022/04/13 14:23:58;;;;;;;2.03;1.70;;;32.10;60.10;;;;;;6279019;22;20447;-67
2022/04/13 14:26:25;;;;;;;2.10;1.60;;;31.80;62.00;;;;;;6306239;22;20462;-67
2022/04/13 14:28:51;;;;;;;4.10;2.07;;;31.80;59.40;;;;;;6306402;22;20416;-66
2022/04/13 14:31:20;;;;;;;2.67;1.77;;;31.70;61.00;;;;;;6306230;22;20419;-67
2022/04/13 14:33:47;;;;;;;2.73;1.97;;;31.70;60.50;;;;;;6306156;22;20412;-66
2022/04/13 14:36:14;;;;;;;2.75;1.90;;;31.60;59.90;;;;;;6306111;22;20838;-67
2022/04/13 14:38:41;;;;;;;4.00;2.10;;;31.60;60.60;;;;;;6306499;22;20173;-66
2022/04/13 14:41:08;;;;;;;3.00;2.00;;;31.40;60.00;;;;;;6306060;22;20418;-66
2022/04/13 14:43:35;;;;;;;2.77;1.80;;;31.20;60.30;;;;;;6306080;22;20427;-65
2022/04/13 14:46:02;;;;;;;1.97;1.60;;;30.90;61.50;;;;;;6305991;22;20945;-66
2022/04/13 14:48:31;;;;;;;2.50;1.83;;;30.80;62.50;;;;;;6306327;22;20809;-65
2022/04/13 14:50:58;;;;;;;3.33;2.40;;;31.00;60.90;;;;;;6306098;22;20407;-66
2022/04/13 14:53:25;;;;;;;2.20;1.97;;;31.20;60.80;;;;;;6306194;22;20416;-66
2022/04/13 14:55:52;;;;;;;2.93;1.93;;;31.20;59.90;;;;;;6306506;22;20411;-66
2022/04/13 14:58:19;;;;;;;2.67;2.23;;;31.10;62.60;;;;;;6306270;22;20432;-65
2022/04/13 15:00:47;;;;;;;2.80;2.20;;;31.10;60.60;;;;;;6306715;22;20407;-66
2022/04/13 15:03:14;;;;;;;4.30;2.10;;;31.10;61.90;;;;;;6306315;22;20440;-65
2022/04/13 15:05:43;;;;;;;2.43;2.20;;;31.00;61.00;;;;;;6305922;22;20448;-66
2022/04/13 15:08:10;;;;;;;2.10;1.87;;;30.80;61.20;;;;;;6306208;22;20399;-65
2022/04/13 15:10:38;;;;;;;3.23;2.50;;;30.70;62.30;;;;;;6306125;22;20395;-66
2022/04/13 15:13:05;;;;;;;2.23;1.97;;;30.80;62.20;;;;;;6306207;22;20412;-65
2022/04/13 15:15:32;;;;;;;1.70;1.50;;;31.00;61.10;;;;;;6305971;22;20403;-65
2022/04/13 15:17:59;;;;;;;2.63;2.27;;;30.90;60.90;;;;;;6306121;22;20392;-65
2022/04/13 15:20:27;;;;;;;2.13;1.87;;;31.00;61.70;;;;;;6306343;22;20779;-65
2022/04/13 15:22:55;;;;;;;3.37;2.30;;;30.90;62.40;;;;;;6305759;22;20885;-66
2022/04/13 15:25:22;;;;;;;3.03;2.50;;;31.00;61.90;;;;;;6305480;22;20396;-65
2022/04/13 15:27:49;;;;;;;4.70;1.90;;;31.00;61.30;;;;;;6306188;22;20478;-66
2022/04/13 15:30:16;;;;;;;4.37;2.30;;;31.00;60.40;;;;;;6305805;22;20455;-65
2022/04/13 15:32:44;;;;;;;2.80;1.83;;;30.60;60.60;;;;;;6306186;22;20412;-65
2022/04/13 15:35:11;;;;;;;3.40;2.30;;;30.20;60.50;;;;;;6305825;22;20419;-65
2022/04/13 15:37:41;;;;;;;2.40;1.90;;;30.10;61.90;;;;;;6308468;22;20504;-66
2022/04/13 15:40:12;;;;;;;4.23;2.30;;;29.90;62.10;;;;;;6308335;22;20414;-66
2022/04/13 15:42:41;;;;;;;2.37;1.90;;;30.00;63.20;;;;;;6308120;22;20798;-65
2022/04/13 15:45:09;;;;;;;2.43;1.83;;;30.20;62.10;;;;;;6308348;22;20427;-65
2022/04/13 15:47:37;;;;;;;3.07;2.00;;;30.20;61.00;;;;;;6308204;22;20424;-65
2022/04/13 15:50:06;;;;;;;2.00;1.60;;;30.20;61.10;;;;;;6308449;22;20395;-65
2022/04/13 15:52:33;;;;;;;2.40;1.80;;;30.20;61.00;;;;;;6308139;22;20945;-65
2022/04/13 15:55:01;;;;;;;2.10;1.90;;;30.20;61.30;;;;;;6308211;22;20411;-65
2022/04/13 15:57:29;;;;;;;2.00;1.60;;;30.30;61.80;;;;;;6307945;22;20422;-65
2022/04/13 15:59:56;;;;;;;2.03;1.70;;;30.20;61.70;;;;;;6307316;22;20416;-65
2022/04/13 16:02:25;;;;;;;2.10;1.67;;;30.30;61.40;;;;;;6307752;22;20944;-66
2022/04/13 16:04:51;;;;;;;2.00;1.57;;;30.50;62.20;;;;;;6307467;22;20418;-66
2022/04/13 16:07:19;;;;;;;2.30;1.77;;;30.50;62.90;;;;;;6279783;22;20435;-66
2022/04/13 16:09:46;;;;;;;2.33;1.83;;;30.50;60.00;;;;;;6307521;22;20475;-66
2022/04/13 16:12:13;;;;;;;6.93;2.73;;;30.30;60.20;;;;;;6317762;22;20458;-66
2022/04/13 16:14:42;;;;;;;2.33;1.83;;;30.10;61.60;;;;;;6307401;22;20395;-66
2022/04/13 16:17:09;;;;;;;2.67;1.80;;;29.90;60.70;;;;;;6307447;22;20396;-66
2022/04/13 16:19:36;;;;;;;2.47;2.20;;;29.90;61.60;;;;;;6307431;22;20447;-66
2022/04/13 16:22:03;;;;;;;2.10;1.83;;;29.60;59.10;;;;;;6306791;22;20396;-67
2022/04/13 16:24:30;;;;;;;4.20;2.43;;;29.50;59.70;;;;;;6307385;22;20396;-67
2022/04/13 16:26:58;;;;;;;3.03;1.77;;;29.20;60.60;;;;;;6307600;22;20461;-67
2022/04/13 16:29:24;;;;;;;1.83;1.60;;;29.20;59.50;;;;;;6279788;22;20932;-67
2022/04/13 16:32:02;;;;;;;2.10;1.80;;;29.00;59.20;;;;;;6307053;22;20412;-67
2022/04/13 16:34:29;;;;;;;2.80;1.90;;;28.70;60.60;;;;;;6306840;22;20454;-66
2022/04/13 16:36:57;;;;;;;2.33;1.90;;;28.50;61.00;;;;;;6307490;22;20750;-69
2022/04/13 16:39:24;;;;;;;1.90;1.80;;;28.40;61.70;;;;;;6307447;22;20426;-68
2022/04/13 16:41:51;;;;;;;2.37;2.07;;;28.10;62.00;;;;;;6307391;22;20442;-69
2022/04/13 16:44:18;;;;;;;3.83;2.20;;;27.70;63.00;;;;;;6307411;22;20532;-68
2022/04/13 16:46:47;;;;;;;3.43;1.77;;;27.50;63.20;;;;;;6307595;22;20788;-69
2022/04/13 16:49:15;;;;;;;3.73;1.83;;;27.30;62.80;;;;;;6307247;22;20412;-68
2022/04/13 16:51:43;;;;;;;2.87;1.90;;;27.00;62.80;;;;;;6307560;22;20403;-68
2022/04/13 16:54:11;;;;;;;1.80;1.73;;;26.60;62.20;;;;;;6280116;22;20423;-69
2022/04/13 16:56:38;;;;;;;2.17;1.90;;;26.50;61.80;;;;;;6307550;22;20402;-69
2022/04/13 16:59:06;;;;;;;1.73;1.67;;;26.30;62.60;;;;;;6307310;22;20420;-69
2022/04/13 17:01:33;;;;;;;2.80;1.93;;;26.30;62.40;;;;;;6254969;22;20396;-69
2022/04/13 17:04:01;;;;;;;14.07;1.70;;;26.20;61.60;;;;;;6307031;22;20412;-68
2022/04/13 17:06:29;;;;;;;1.80;1.63;;;26.10;62.10;;;;;;6307008;22;20427;-69
2022/04/13 17:08:56;;;;;;;2.77;1.70;;;26.00;62.40;;;;;;6306842;22;20434;-68
2022/04/13 17:11:28;;;;;;;3.17;1.90;;;25.80;62.50;;;;;;6307332;22;20473;-66
2022/04/13 17:13:57;;;;;;;2.87;1.60;;;25.80;63.20;;;;;;6306265;22;20480;-66
2022/04/13 17:16:27;;;;;;;1.73;1.53;;;25.60;63.70;;;;;;6306423;22;20462;-67
2022/04/13 17:18:56;;;;;;;4.90;1.70;;;25.30;63.10;;;;;;6306962;22;20446;-67
2022/04/13 17:21:23;;;;;;;3.80;1.97;;;25.30;64.00;;;;;;6306662;22;20392;-67
2022/04/13 17:23:53;;;;;;;2.60;1.70;;;25.10;64.60;;;;;;6307228;22;20418;-69
2022/04/13 17:26:20;;;;;;;2.10;1.40;;;25.00;64.00;;;;;;6306608;22;20493;-69
2022/04/13 17:28:47;;;;;;;1.90;1.40;;;24.90;65.30;;;;;;6307351;22;20420;-69
2022/04/13 17:31:14;;;;;;;2.80;1.90;;;24.70;64.80;;;;;;6306754;22;20447;-69
2022/04/13 17:33:41;;;;;;;1.50;1.40;;;24.50;65.40;;;;;;6307299;22;20911;-69
2022/04/13 17:36:10;;;;;;;3.90;2.23;;;24.40;65.70;;;;;;6307014;22;20455;-68
2022/04/13 17:38:37;;;;;;;2.80;1.50;;;24.20;66.50;;;;;;6307325;22;20439;-69
2022/04/13 17:41:05;;;;;;;3.50;2.03;;;24.10;67.10;;;;;;6307162;22;20415;-68
2022/04/13 17:43:32;;;;;;;2.30;1.70;;;23.90;67.30;;;;;;6306683;22;20469;-69
2022/04/13 17:46:02;;;;;;;2.70;1.93;;;23.90;69.20;;;;;;6306871;22;20412;-69
2022/04/13 17:48:29;;;;;;;2.07;1.63;;;23.80;71.70;;;;;;6306740;22;20441;-68
2022/04/13 17:50:57;;;;;;;2.43;1.53;;;23.60;73.70;;;;;;6306500;22;20419;-69
2022/04/13 17:53:24;;;;;;;1.60;1.33;;;23.30;74.20;;;;;;6305971;22;20449;-68
2022/04/13 17:55:52;;;;;;;2.10;1.70;;;23.00;75.20;;;;;;6305572;22;20427;-69
2022/04/13 17:58:21;;;;;;;1.43;1.37;;;22.90;76.60;;;;;;6304958;22;20399;-68
2022/04/13 18:00:49;;;;;;;1.97;1.87;;;22.70;77.40;;;;;;6306611;22;20392;-70
2022/04/13 18:03:17;;;;;;;2.40;1.70;;;22.60;76.20;;;;;;6307070;22;20423;-70
2022/04/13 18:05:44;;;;;;;1.70;1.50;;;22.30;75.50;;;;;;6307393;22;20400;-70
2022/04/13 18:08:12;;;;;;;1.80;1.33;;;22.20;74.80;;;;;;6306793;22;20478;-69
2022/04/13 18:10:40;;;;;;;3.10;1.83;;;21.90;75.80;;;;;;6306887;22;20723;-70
2022/04/13 18:13:07;;;;;;;2.70;1.77;;;21.70;76.30;;;;;;6305434;22;20432;-69
2022/04/13 18:15:35;;;;;;;1.77;1.50;;;21.50;77.90;;;;;;6306606;22;20447;-69
2022/04/13 18:18:04;;;;;;;4.50;2.00;;;21.40;79.00;;;;;;6306600;22;20439;-69
2022/04/13 18:20:34;;;;;;;1.70;1.47;;;21.20;80.10;;;;;;6306840;22;20710;-67
2022/04/13 18:23:02;;;;;;;3.83;1.70;;;21.00;81.60;;;;;;6316276;22;20430;-67
2022/04/13 18:25:29;;;;;;;1.70;1.60;;;20.90;81.80;;;;;;6306301;22;20396;-67
2022/04/13 18:27:56;;;;;;;1.50;1.50;;;20.80;81.40;;;;;;6306114;22;20917;-68
2022/04/13 18:30:24;;;;;;;1.57;1.40;;;20.70;81.80;;;;;;6306879;22;20773;-67
2022/04/13 18:32:52;;;;;;;1.50;1.30;;;20.40;81.40;;;;;;6306843;22;20412;-67
2022/04/13 18:35:19;;;;;;;2.07;1.80;;;20.20;81.50;;;;;;6306809;22;20760;-67
2022/04/13 18:37:46;;;;;;;4.23;1.67;;;20.10;82.10;;;;;;6306266;22;20392;-67
2022/04/13 18:40:15;;;;;;;1.77;1.30;;;20.00;83.30;;;;;;6306103;22;20473;-67
2022/04/13 18:42:42;;;;;;;2.60;1.27;;;19.90;83.60;;;;;;6305828;22;20461;-67
2022/04/13 18:45:10;;;;;;;1.33;1.27;;;19.80;83.30;;;;;;6306367;22;20419;-67
2022/04/13 18:47:38;;;;;;;1.50;1.40;;;19.50;84.30;;;;;;6305940;22;20471;-67
2022/04/13 18:50:08;;;;;;;3.43;2.10;;;19.60;83.60;;;;;;6306297;22;20408;-67
2022/04/13 18:52:35;;;;;;;1.80;1.50;;;19.40;83.50;;;;;;6305876;22;20898;-67
2022/04/13 18:55:04;;;;;;;1.50;1.30;;;19.40;83.70;;;;;;6306253;22;20419;-67
2022/04/13 18:57:30;;;;;;;1.50;1.37;;;19.40;84.40;;;;;;6279298;22;20732;-67
2022/04/13 18:59:58;;;;;;;1.50;1.30;;;19.20;83.80;;;;;;6305978;22;20447;-67
2022/04/13 19:02:25;;;;;;;6.80;1.83;;;19.00;84.90;;;;;;6279247;22;20773;-68
2022/04/13 19:04:52;;;;;;;1.77;1.50;;;18.90;84.10;;;;;;6306381;22;20411;-68
2022/04/13 19:07:26;;;;;;;2.80;1.60;;;18.70;85.50;;;;;;6306256;22;20423;-68
2022/04/13 19:09:53;;;;;;;1.90;1.57;;;18.50;86.30;;;;;;6305955;22;20453;-70
2022/04/13 19:12:20;;;;;;;2.17;1.50;;;18.40;86.80;;;;;;6279138;22;20462;-70
2022/04/13 19:14:47;;;;;;;1.70;1.33;;;18.30;86.20;;;;;;6306054;22;20400;-70
2022/04/13 19:17:14;;;;;;;1.70;1.33;;;18.20;86.20;;;;;;6305951;22;20396;-70
2022/04/13 19:19:41;;;;;;;2.37;1.70;;;18.20;85.80;;;;;;6306229;22;20927;-70
2022/04/13 19:22:09;;;;;;;2.00;1.50;;;18.00;87.30;;;;;;6306434;22;20430;-70
2022/04/13 19:24:43;;;;;;;1.47;1.40;;;18.00;86.90;;;;;;6306807;22;20711;-70
2022/04/13 19:27:10;;;;;;;1.90;1.50;;;17.90;88.20;;;;;;6305757;22;20786;-70
2022/04/13 19:29:40;;;;;;;2.27;1.73;;;17.70;89.40;;;;;;6306309;22;20404;-70
2022/04/13 19:32:07;;;;;;;3.20;1.57;;;17.70;90.00;;;;;;6305794;22;21086;-70
2022/04/13 19:34:37;;;;;;;2.07;1.37;;;17.70;91.20;;;;;;6305788;22;20412;-70
2022/04/13 19:37:06;;;;;;;2.57;1.43;;;17.80;91.40;;;;;;6305051;22;20407;-70
2022/04/13 19:39:34;;;;;;;1.80;1.77;;;17.80;91.40;;;;;;6306010;22;20399;-70
2022/04/13 19:42:05;;;;;;;1.70;1.40;;;17.50;92.10;;;;;;6305826;22;20457;-70
2022/04/13 19:44:32;;;;;;;2.83;1.90;;;17.30;91.70;;;;;;6305678;22;20502;-70
2022/04/13 19:47:00;;;;;;;3.70;2.30;;;17.20;92.10;;;;;;6305283;22;20545;-70
2022/04/13 19:49:28;;;;;;;2.40;1.73;;;17.10;91.50;;;;;;6306100;22;20521;-70
2022/04/13 19:51:55;;;;;;;1.60;1.57;;;17.20;91.50;;;;;;6305921;22;20416;-70
2022/04/13 19:54:22;;;;;;;3.00;1.93;;;17.30;91.60;;;;;;6306067;22;20412;-70
2022/04/13 19:56:51;;;;;;;3.53;1.70;;;17.30;90.90;;;;;;6306000;22;20461;-70
2022/04/13 19:59:19;;;;;;;3.07;1.97;;;17.20;89.90;;;;;;6279337;22;20900;-70
2022/04/13 20:01:49;;;;;;;2.10;1.70;;;17.10;89.70;;;;;;6306045;22;20435;-70
2022/04/13 20:04:16;;;;;;;2.03;1.93;;;17.10;90.70;;;;;;6306104;22;20422;-70
2022/04/13 20:06:43;;;;;;;2.13;2.03;;;17.00;91.90;;;;;;6305702;22;20408;-70
2022/04/13 20:09:10;;;;;;;1.87;1.40;;;17.10;91.60;;;;;;6306125;22;20453;-70
2022/04/13 20:11:37;;;;;;;2.27;2.00;;;17.10;91.30;;;;;;6305651;22;20400;-71
2022/04/13 20:14:04;;;;;;;2.33;1.73;;;17.10;92.00;;;;;;6306318;22;20404;-70
2022/04/13 20:16:33;;;;;;;1.60;1.50;;;17.00;92.30;;;;;;6305893;22;20425;-70
2022/04/13 20:19:00;;;;;;;3.33;1.77;;;16.90;93.30;;;;;;6305812;22;20469;-68
2022/04/13 20:21:32;;;;;;;2.47;1.50;;;17.00;93.90;;;;;;6306054;22;20400;-68
2022/04/13 20:23:59;;;;;;;2.70;1.80;;;16.70;94.40;;;;;;6307679;22;20489;-68
2022/04/13 20:26:26;;;;;;;2.97;1.70;;;16.50;95.10;;;;;;6307112;22;20412;-68
2022/04/13 20:28:53;;;;;;;2.20;1.77;;;16.50;95.20;;;;;;6307112;22;20435;-68
2022/04/13 20:31:20;;;;;;;1.30;1.30;;;16.40;95.30;;;;;;6307461;22;20850;-68
2022/04/13 20:33:48;;;;;;;3.93;2.10;;;16.40;95.50;;;;;;6307521;22;20486;-68
2022/04/13 20:36:16;;;;;;;3.80;2.10;;;16.20;96.20;;;;;;6307103;22;20451;-68
2022/04/13 20:38:42;;;;;;;7.63;2.80;;;16.10;96.00;;;;;;6280130;22;20396;-69